createdAt,value
2019-02-27T00:00:57.859Z,80.45
2019-02-27T00:03:28.884Z,80.45
2019-02-27T00:05:56.005Z,80.41
2019-02-27T00:08:26.564Z,80.30
2019-02-27T00:10:53.535Z,80.20
2019-02-27T00:13:24.748Z,80.40
2019-02-27T00:15:51.197Z,80.28
2019-02-27T00:18:19.020Z,80.38
2019-02-27T00:20:46.754Z,80.56
2019-02-27T00:23:14.599Z,80.36
2019-02-27T00:25:42.353Z,80.32
2019-02-27T00:28:10.175Z,80.37
2019-02-27T00:30:38.656Z,80.07
2019-02-27T00:33:06.684Z,80.00
2019-02-27T00:35:38.673Z,79.94
2019-02-27T00:38:04.144Z,79.91
2019-02-27T00:40:32.064Z,79.92
2019-02-27T00:42:59.909Z,79.92
2019-02-27T00:45:27.822Z,79.93
2019-02-27T00:47:55.669Z,79.86
2019-02-27T00:50:23.568Z,79.79
2019-02-27T00:52:51.732Z,80.16
2019-02-27T00:55:19.713Z,80.28
2019-02-27T00:57:47.569Z,80.45
2019-02-27T01:00:16.060Z,80.72
2019-02-27T01:02:43.880Z,80.82
2019-02-27T01:05:11.988Z,81.07
2019-02-27T01:07:40.623Z,80.91
2019-02-27T01:10:15.542Z,80.89
2019-02-27T01:12:43.990Z,80.63
2019-02-27T01:15:12.808Z,80.79
2019-02-27T01:17:41.253Z,80.85
2019-02-27T01:20:11.515Z,80.80
2019-02-27T01:22:39.189Z,80.72
2019-02-27T01:25:07.198Z,80.84
2019-02-27T01:27:37.886Z,80.89
2019-02-27T01:30:05.347Z,80.95
2019-02-27T01:32:33.238Z,80.98
2019-02-27T01:35:01.942Z,80.95
2019-02-27T01:37:31.707Z,81.08
2019-02-27T01:39:59.486Z,80.93
2019-02-27T01:42:32.042Z,80.97
2019-02-27T01:44:57.185Z,80.77
2019-02-27T01:47:24.912Z,81.14
2019-02-27T01:49:52.838Z,81.12
2019-02-27T01:52:20.894Z,81.39
2019-02-27T01:54:49.633Z,81.43
2019-02-27T01:57:17.458Z,81.28
2019-02-27T01:59:45.239Z,81.46
2019-02-27T02:02:12.970Z,81.51
2019-02-27T02:04:41.649Z,81.64
2019-02-27T02:07:09.404Z,81.86
2019-02-27T02:09:38.522Z,81.98
2019-02-27T02:12:15.030Z,81.65
2019-02-27T02:14:59.975Z,81.68
2019-02-27T02:17:53.229Z,81.69
2019-02-27T02:21:14.042Z,82.03
2019-02-27T02:24:35.608Z,82.07
2019-02-27T02:27:19.011Z,81.87
2019-02-27T02:30:40.871Z,82.03
2019-02-27T02:33:19.766Z,81.98
2019-02-27T02:36:41.272Z,81.91
2019-02-27T02:39:30.506Z,82.22
2019-02-27T02:42:41.366Z,82.06
2019-02-27T02:45:17.042Z,82.00
2019-02-27T02:47:55.432Z,82.05
2019-02-27T02:50:55.084Z,81.80
2019-02-27T02:54:06.640Z,81.75
2019-02-27T02:56:41.934Z,81.78
2019-02-27T02:59:45.899Z,81.72
2019-02-27T03:02:30.867Z,81.80
2019-02-27T03:05:29.920Z,81.54
2019-02-27T03:08:28.142Z,81.39
2019-02-27T03:11:35.241Z,81.30
2019-02-27T03:14:26.514Z,81.19
2019-02-27T03:17:17.923Z,81.46
2019-02-27T03:20:25.813Z,81.33
2019-02-27T03:23:31.307Z,81.24
2019-02-27T03:26:16.544Z,81.39
2019-02-27T03:29:21.567Z,81.31
2019-02-27T03:32:04.377Z,81.22
2019-02-27T03:35:06.584Z,81.27
2019-02-27T03:37:39.676Z,81.25
2019-02-27T03:40:52.411Z,81.18
2019-02-27T03:43:54.104Z,81.26
2019-02-27T03:46:53.478Z,81.32
2019-02-27T03:49:49.233Z,81.46
2019-02-27T03:52:48.561Z,81.42
2019-02-27T03:55:45.765Z,81.33
2019-02-27T03:58:36.768Z,81.33
2019-02-27T04:01:32.625Z,81.25
2019-02-27T04:04:30.599Z,81.28
2019-02-27T04:07:09.330Z,81.21
2019-02-27T04:09:37.406Z,81.32
2019-02-27T04:12:05.165Z,81.36
2019-02-27T04:14:40.166Z,81.60
2019-02-27T04:17:07.033Z,81.35
2019-02-27T04:19:38.774Z,81.42
2019-02-27T04:22:04.269Z,81.39
2019-02-27T04:24:32.061Z,81.28
2019-02-27T04:26:59.939Z,81.50
2019-02-27T04:29:27.657Z,81.49
2019-02-27T04:31:55.600Z,82.06
2019-02-27T04:34:23.367Z,82.43
2019-02-27T04:36:51.344Z,82.58
2019-02-27T04:39:19.060Z,82.41
2019-02-27T04:41:46.970Z,83.06
2019-02-27T04:44:15.292Z,82.75
2019-02-27T04:46:46.420Z,82.79
2019-02-27T04:49:14.304Z,83.02
2019-02-27T04:51:42.052Z,82.97
2019-02-27T04:54:09.834Z,83.05
2019-02-27T04:56:38.366Z,83.37
2019-02-27T04:59:06.264Z,83.29
2019-02-27T05:01:52.072Z,83.62
2019-02-27T05:04:19.850Z,83.60
2019-02-27T05:06:47.830Z,83.46
2019-02-27T05:09:15.692Z,83.28
2019-02-27T05:11:47.597Z,83.29
2019-02-27T05:14:13.124Z,83.50
2019-02-27T05:16:40.885Z,83.27
2019-02-27T05:19:08.786Z,83.57
2019-02-27T05:21:36.691Z,83.34
2019-02-27T05:24:05.271Z,83.30
2019-02-27T05:26:34.350Z,83.35
2019-02-27T05:29:02.159Z,83.33
2019-02-27T05:31:29.903Z,83.22
2019-02-27T05:33:57.743Z,83.20
2019-02-27T05:36:25.491Z,83.31
2019-02-27T05:38:53.302Z,83.38
2019-02-27T05:41:21.370Z,83.40
2019-02-27T05:43:49.146Z,83.33
2019-02-27T05:46:16.887Z,83.53
2019-02-27T05:48:44.760Z,83.70
2019-02-27T05:51:12.939Z,83.60
2019-02-27T05:53:40.712Z,83.60
2019-02-27T05:56:08.483Z,83.90
2019-02-27T05:58:36.291Z,83.84
2019-02-27T06:01:04.988Z,84.08
2019-02-27T06:03:33.861Z,84.34
2019-02-27T06:06:02.201Z,84.65
2019-02-27T06:08:30.117Z,84.30
2019-02-27T06:10:57.920Z,84.13
2019-02-27T06:13:25.745Z,84.37
2019-02-27T06:15:53.647Z,83.56
2019-02-27T06:18:23.494Z,83.74
2019-02-27T06:20:51.170Z,83.66
2019-02-27T06:23:18.992Z,84.02
2019-02-27T06:25:46.770Z,83.97
2019-02-27T06:28:18.444Z,83.70
2019-02-27T06:30:44.188Z,83.91
2019-02-27T06:33:12.418Z,84.63
2019-02-27T06:35:40.246Z,84.64
2019-02-27T06:38:08.898Z,84.35
2019-02-27T06:40:36.794Z,83.69
2019-02-27T06:43:04.525Z,83.61
2019-02-27T06:45:32.304Z,84.06
2019-02-27T06:48:00.058Z,83.72
2019-02-27T06:50:28.025Z,83.68
2019-02-27T06:52:55.768Z,83.31
2019-02-27T06:55:25.424Z,83.58
2019-02-27T06:57:53.286Z,83.73
2019-02-27T07:00:21.177Z,83.40
2019-02-27T07:02:49.733Z,83.16
2019-02-27T07:05:17.633Z,83.14
2019-02-27T07:07:45.584Z,82.98
2019-02-27T07:10:14.441Z,82.85
2019-02-27T07:12:42.270Z,82.93
2019-02-27T07:15:13.499Z,83.37
2019-02-27T07:17:41.340Z,83.80
2019-02-27T07:20:10.164Z,83.80
2019-02-27T07:22:37.926Z,84.22
2019-02-27T07:25:07.204Z,83.81
2019-02-27T07:27:35.057Z,84.24
2019-02-27T07:30:04.885Z,84.52
2019-02-27T07:32:33.022Z,84.60
2019-02-27T07:35:00.861Z,84.66
2019-02-27T07:37:28.606Z,84.53
2019-02-27T07:39:56.481Z,84.70
2019-02-27T07:42:24.922Z,84.83
2019-02-27T07:44:52.732Z,85.04
2019-02-27T07:47:20.545Z,84.94
2019-02-27T07:49:48.354Z,84.79
2019-02-27T07:52:16.167Z,84.58
2019-02-27T07:54:43.895Z,85.09
2019-02-27T07:57:11.690Z,84.70
2019-02-27T07:59:40.109Z,84.86
2019-02-27T08:02:08.121Z,85.39
2019-02-27T08:04:35.943Z,85.60
2019-02-27T08:07:04.101Z,85.08
2019-02-27T08:09:31.949Z,84.44
2019-02-27T08:12:02.651Z,85.26
2019-02-27T08:14:30.462Z,85.37
2019-02-27T08:16:58.254Z,85.68
2019-02-27T08:19:26.068Z,85.00
2019-02-27T08:21:53.923Z,85.13
2019-02-27T08:24:22.729Z,84.89
2019-02-27T08:26:51.516Z,85.35
2019-02-27T08:29:19.224Z,85.21
2019-02-27T08:31:47.109Z,85.13
2019-02-27T08:34:15.030Z,85.37
2019-02-27T08:36:42.808Z,86.04
2019-02-27T08:39:10.730Z,85.40
2019-02-27T08:41:38.524Z,85.27
2019-02-27T08:44:06.269Z,85.43
2019-02-27T08:46:37.103Z,85.33
2019-02-27T08:49:03.733Z,85.92
2019-02-27T08:51:31.526Z,86.05
2019-02-27T08:53:59.923Z,86.34
2019-02-27T08:56:29.995Z,86.47
2019-02-27T08:59:05.084Z,85.68
2019-02-27T09:01:30.963Z,86.52
2019-02-27T09:03:58.680Z,94.27
2019-02-27T09:06:27.545Z,100.00
2019-02-27T09:08:55.942Z,100.00
2019-02-27T09:11:23.710Z,100.00
2019-02-27T09:13:52.277Z,91.27
2019-02-27T09:16:23.022Z,79.46
2019-02-27T09:18:50.003Z,78.73
2019-02-27T09:21:17.796Z,80.06
2019-02-27T09:23:46.321Z,81.26
2019-02-27T09:26:14.196Z,82.47
2019-02-27T09:28:44.226Z,82.66
2019-02-27T09:31:12.201Z,82.62
2019-02-27T09:33:40.275Z,84.69
2019-02-27T09:36:10.329Z,84.11
2019-02-27T09:38:38.712Z,84.28
2019-02-27T09:41:06.659Z,83.93
2019-02-27T09:43:35.250Z,84.59
2019-02-27T09:46:03.120Z,84.02
2019-02-27T09:48:33.391Z,84.99
2019-02-27T09:51:00.718Z,84.04
2019-02-27T09:53:28.616Z,84.02
2019-02-27T09:55:56.445Z,83.93
2019-02-27T09:58:24.476Z,84.15
2019-02-27T10:01:00.331Z,83.56
2019-02-27T10:03:27.165Z,83.55
2019-02-27T10:05:55.006Z,83.54
2019-02-27T10:08:25.254Z,83.46
2019-02-27T10:10:52.716Z,83.17
2019-02-27T10:13:20.627Z,83.45
2019-02-27T10:15:48.458Z,83.28
2019-02-27T10:18:18.961Z,82.49
2019-02-27T10:20:46.372Z,83.13
2019-02-27T10:23:14.259Z,81.93
2019-02-27T10:25:43.480Z,82.09
2019-02-27T10:28:11.918Z,81.28
2019-02-27T10:30:40.570Z,80.40
2019-02-27T10:33:11.144Z,79.95
2019-02-27T10:35:38.143Z,78.89
2019-02-27T10:38:06.164Z,78.61
2019-02-27T10:40:33.980Z,78.46
2019-02-27T10:43:01.892Z,77.55
2019-02-27T10:45:29.816Z,77.36
2019-02-27T10:47:57.611Z,76.15
2019-02-27T10:50:25.529Z,74.64
2019-02-27T10:52:53.340Z,75.31
2019-02-27T10:55:21.201Z,74.17
2019-02-27T10:57:49.180Z,72.68
2019-02-27T11:00:19.385Z,73.75
2019-02-27T11:02:47.888Z,71.71
2019-02-27T11:05:17.793Z,71.46
2019-02-27T11:07:46.638Z,71.13
2019-02-27T11:10:15.897Z,70.72
2019-02-27T11:12:43.851Z,69.27
2019-02-27T11:15:13.110Z,68.79
2019-02-27T11:17:41.835Z,67.49
2019-02-27T11:20:09.912Z,66.46
2019-02-27T11:22:37.882Z,66.11
2019-02-27T11:25:08.028Z,63.83
2019-02-27T11:27:38.463Z,64.29
2019-02-27T11:30:07.939Z,61.90
2019-02-27T11:32:36.016Z,62.54
2019-02-27T11:35:03.984Z,61.78
2019-02-27T11:37:31.871Z,59.62
2019-02-27T11:39:59.889Z,58.59
2019-02-27T11:42:28.960Z,58.92
2019-02-27T11:44:58.321Z,58.18
2019-02-27T11:47:26.054Z,57.84
2019-02-27T11:49:53.957Z,54.63
2019-02-27T11:52:21.803Z,57.42
2019-02-27T11:54:50.092Z,55.82
2019-02-27T11:57:17.931Z,54.62
2019-02-27T11:59:46.966Z,52.05
2019-02-27T12:02:15.506Z,51.23
2019-02-27T12:04:43.304Z,52.28
2019-02-27T12:07:12.295Z,49.10
2019-02-27T12:09:40.265Z,49.10
2019-02-27T12:12:08.008Z,49.09
2019-02-27T12:14:35.803Z,48.98
2019-02-27T12:17:03.766Z,48.96
2019-02-27T12:19:31.661Z,47.01
2019-02-27T12:22:00.258Z,46.81
2019-02-27T12:24:28.443Z,46.81
2019-02-27T12:26:56.252Z,45.71
2019-02-27T12:29:26.555Z,43.68
2019-02-27T12:31:53.986Z,44.75
2019-02-27T12:34:21.819Z,44.20
2019-02-27T12:37:03.959Z,44.20
2019-02-27T12:39:31.831Z,40.94
2019-02-27T12:41:59.696Z,40.94
2019-02-27T12:44:28.403Z,39.71
2019-02-27T12:46:56.144Z,40.32
2019-02-27T12:49:23.924Z,40.32
2019-02-27T12:51:51.682Z,39.85
2019-02-27T12:54:19.827Z,38.93
2019-02-27T12:56:47.580Z,39.05
2019-02-27T12:59:15.478Z,38.08
2019-02-27T13:01:43.222Z,38.23
2019-02-27T13:04:16.072Z,38.23
2019-02-27T13:06:41.260Z,37.05
2019-02-27T13:09:09.178Z,37.10
2019-02-27T13:11:39.093Z,36.88
2019-02-27T13:14:06.781Z,36.82
2019-02-27T13:16:34.501Z,36.53
2019-02-27T13:19:06.124Z,36.78
2019-02-27T13:21:32.034Z,37.05
2019-02-27T13:23:59.837Z,36.25
2019-02-27T13:26:27.591Z,36.79
2019-02-27T13:28:55.471Z,35.13
2019-02-27T13:31:23.292Z,34.79
2019-02-27T13:33:51.005Z,34.53
2019-02-27T13:36:18.859Z,34.70
2019-02-27T13:38:46.619Z,34.66
2019-02-27T13:41:14.434Z,34.58
2019-02-27T13:43:42.292Z,32.83
2019-02-27T13:46:10.072Z,32.83
2019-02-27T13:48:39.772Z,33.70
2019-02-27T13:51:07.919Z,33.51
2019-02-27T13:53:35.666Z,33.51
2019-02-27T13:56:03.675Z,33.55
2019-02-27T13:58:35.688Z,33.13
2019-02-27T14:01:01.306Z,32.51
2019-02-27T14:03:29.144Z,30.15
2019-02-27T14:05:57.150Z,31.08
2019-02-27T14:08:24.904Z,31.15
2019-02-27T14:10:54.062Z,31.66
2019-02-27T14:13:22.002Z,30.30
2019-02-27T14:15:49.807Z,30.88
2019-02-27T14:18:17.566Z,31.36
2019-02-27T14:20:45.346Z,31.60
2019-02-27T14:23:14.588Z,31.37
2019-02-27T14:25:42.907Z,30.09
2019-02-27T14:28:11.690Z,31.45
2019-02-27T14:30:42.363Z,31.62
2019-02-27T14:33:11.147Z,31.72
2019-02-27T14:35:39.161Z,30.83
2019-02-27T14:38:07.140Z,29.90
2019-02-27T14:40:38.543Z,30.40
2019-02-27T14:43:05.525Z,30.05
2019-02-27T14:45:33.995Z,30.46
2019-02-27T14:48:01.961Z,30.33
2019-02-27T14:50:33.617Z,30.10
2019-02-27T14:52:59.922Z,30.60
2019-02-27T14:55:27.892Z,30.89
2019-02-27T14:57:55.623Z,31.18
2019-02-27T15:00:25.664Z,31.26
2019-02-27T15:02:55.718Z,31.83
2019-02-27T15:05:24.390Z,31.56
2019-02-27T15:07:53.649Z,31.23
2019-02-27T15:10:22.455Z,31.40
2019-02-27T15:12:53.714Z,31.48
2019-02-27T15:15:27.795Z,31.36
2019-02-27T15:17:56.012Z,31.82
2019-02-27T15:20:24.695Z,32.11
2019-02-27T15:22:53.576Z,32.70
2019-02-27T15:25:21.723Z,32.89
2019-02-27T15:27:49.501Z,32.92
2019-02-27T15:30:22.325Z,33.39
2019-02-27T15:32:50.262Z,33.20
2019-02-27T15:35:20.858Z,33.92
2019-02-27T15:37:48.304Z,33.91
2019-02-27T15:40:17.846Z,33.80
2019-02-27T15:42:46.048Z,34.23
2019-02-27T15:45:15.314Z,34.59
2019-02-27T15:47:43.279Z,35.22
2019-02-27T15:50:12.918Z,35.65
2019-02-27T15:52:41.443Z,36.05
2019-02-27T15:55:09.502Z,36.15
2019-02-27T15:57:37.518Z,36.54
2019-02-27T16:00:06.666Z,36.98
2019-02-27T16:02:36.744Z,37.47
2019-02-27T16:05:06.477Z,37.90
2019-02-27T16:07:34.370Z,38.20
2019-02-27T16:10:06.572Z,38.65
2019-02-27T16:12:31.868Z,39.08
2019-02-27T16:15:08.331Z,39.43
2019-02-27T16:17:36.202Z,39.87
2019-02-27T16:20:05.521Z,40.33
2019-02-27T16:22:33.423Z,40.75
2019-02-27T16:25:01.138Z,41.38
2019-02-27T16:27:29.100Z,41.92
2019-02-27T16:29:57.421Z,42.47
2019-02-27T16:32:25.455Z,43.09
2019-02-27T16:34:53.216Z,43.86
2019-02-27T16:37:22.787Z,44.41
2019-02-27T16:39:51.833Z,44.97
2019-02-27T16:42:19.631Z,45.65
2019-02-27T16:44:48.292Z,46.34
2019-02-27T16:47:19.643Z,47.32
2019-02-27T16:49:49.606Z,48.50
2019-02-27T16:52:15.524Z,49.12
2019-02-27T16:54:43.253Z,49.46
2019-02-27T16:57:11.140Z,49.95
2019-02-27T16:59:38.880Z,50.13
2019-02-27T17:02:06.698Z,50.53
2019-02-27T17:04:34.899Z,50.95
2019-02-27T17:07:02.829Z,51.11
2019-02-27T17:09:30.695Z,51.47
2019-02-27T17:11:58.511Z,52.27
2019-02-27T17:14:26.441Z,52.27
2019-02-27T17:16:59.070Z,52.84
2019-02-27T17:19:26.926Z,53.11
2019-02-27T17:21:58.592Z,53.20
2019-02-27T17:24:25.037Z,53.70
2019-02-27T17:26:52.845Z,54.49
2019-02-27T17:29:22.811Z,54.49
2019-02-27T17:31:55.280Z,55.01
2019-02-27T17:34:20.554Z,55.12
2019-02-27T17:36:48.411Z,56.29
2019-02-27T17:39:16.373Z,55.96
2019-02-27T17:41:44.740Z,55.86
2019-02-27T17:44:13.093Z,56.02
2019-02-27T17:46:40.816Z,56.32
2019-02-27T17:49:08.736Z,56.83
2019-02-27T17:51:39.534Z,56.83
2019-02-27T17:54:07.165Z,56.88
2019-02-27T17:56:35.852Z,57.51
2019-02-27T17:59:05.290Z,57.40
2019-02-27T18:01:34.208Z,57.57
2019-02-27T18:04:02.094Z,57.83
2019-02-27T18:06:31.176Z,58.18
2019-02-27T18:08:59.632Z,58.18
2019-02-27T18:11:27.452Z,58.00
2019-02-27T18:13:55.291Z,58.42
2019-02-27T18:16:24.584Z,58.45
2019-02-27T18:18:55.642Z,58.68
2019-02-27T18:21:23.559Z,58.74
2019-02-27T18:23:51.369Z,58.91
2019-02-27T18:26:19.827Z,59.02
2019-02-27T18:28:47.604Z,59.22
2019-02-27T18:31:15.484Z,59.45
2019-02-27T18:33:43.607Z,59.45
2019-02-27T18:36:11.571Z,59.89
2019-02-27T18:38:39.463Z,59.90
2019-02-27T18:41:07.478Z,64.54
2019-02-27T18:43:35.375Z,64.54
2019-02-27T18:46:03.238Z,65.81
2019-02-27T18:48:31.109Z,64.70
2019-02-27T18:50:59.443Z,62.59
2019-02-27T18:53:27.426Z,61.31
2019-02-27T18:55:55.381Z,61.52
2019-02-27T18:58:23.204Z,61.17
2019-02-27T19:00:51.015Z,60.74
2019-02-27T19:03:18.993Z,59.70
2019-02-27T19:05:46.849Z,59.81
2019-02-27T19:08:14.964Z,59.66
2019-02-27T19:10:42.817Z,59.37
2019-02-27T19:13:10.971Z,59.69
2019-02-27T19:15:45.473Z,58.77
2019-02-27T19:18:30.511Z,58.87
2019-02-27T19:20:59.318Z,58.44
2019-02-27T19:23:28.264Z,57.68
2019-02-27T19:25:56.271Z,57.98
2019-02-27T19:28:24.995Z,58.92
2019-02-27T19:30:53.580Z,59.65
2019-02-27T19:33:21.666Z,60.14
2019-02-27T19:35:50.063Z,60.80
2019-02-27T19:38:18.501Z,61.13
2019-02-27T19:40:46.554Z,61.46
2019-02-27T19:43:14.383Z,61.75
2019-02-27T19:45:42.523Z,62.19
2019-02-27T19:48:11.917Z,62.54
2019-02-27T19:50:45.235Z,63.18
2019-02-27T19:53:10.096Z,62.73
2019-02-27T19:55:38.333Z,63.01
2019-02-27T19:58:06.207Z,63.06
2019-02-27T20:00:35.538Z,63.35
2019-02-27T20:03:03.985Z,63.64
2019-02-27T20:05:31.903Z,63.64
2019-02-27T20:07:59.857Z,69.12
2019-02-27T20:10:30.963Z,65.96
2019-02-27T20:12:57.617Z,63.98
2019-02-27T20:15:25.761Z,60.48
2019-02-27T20:17:56.578Z,60.25
2019-02-27T20:20:25.190Z,60.44
2019-02-27T20:22:54.818Z,60.28
2019-02-27T20:25:23.252Z,60.81
2019-02-27T20:27:51.288Z,60.81
2019-02-27T20:30:19.443Z,60.74
2019-02-27T20:32:47.457Z,60.80
2019-02-27T20:35:17.324Z,60.76
2019-02-27T20:37:45.412Z,60.27
2019-02-27T20:40:13.520Z,60.27
2019-02-27T20:42:41.631Z,60.45
2019-02-27T20:45:12.189Z,60.77
2019-02-27T20:47:40.150Z,60.77
2019-02-27T20:50:11.409Z,60.34
2019-02-27T20:52:39.193Z,60.09
2019-02-27T20:55:07.234Z,60.09
2019-02-27T20:57:35.068Z,60.31
2019-02-27T21:00:04.654Z,60.43
2019-02-27T21:02:32.594Z,60.55
2019-02-27T21:05:00.421Z,60.49
2019-02-27T21:07:28.166Z,60.79
2019-02-27T21:09:55.994Z,66.69
2019-02-27T21:12:23.849Z,63.64
2019-02-27T21:14:51.941Z,59.16
2019-02-27T21:17:21.739Z,59.16
2019-02-27T21:19:49.565Z,58.78
2019-02-27T21:22:17.633Z,59.27
2019-02-27T21:24:45.711Z,59.27
2019-02-27T21:27:13.421Z,59.75
2019-02-27T21:29:43.376Z,60.25
2019-02-27T21:32:11.393Z,60.75
2019-02-27T21:34:39.255Z,60.97
2019-02-27T21:37:10.104Z,61.11
2019-02-27T21:39:36.912Z,61.20
2019-02-27T21:42:05.251Z,61.34
2019-02-27T21:44:33.001Z,61.44
2019-02-27T21:47:00.807Z,61.48
2019-02-27T21:49:31.632Z,61.57
2019-02-27T21:51:58.754Z,61.64
2019-02-27T21:54:26.592Z,61.71
2019-02-27T21:56:55.204Z,61.72
2019-02-27T21:59:23.229Z,61.97
2019-02-27T22:01:53.327Z,61.97
2019-02-27T22:04:21.024Z,62.32
2019-02-27T22:06:48.917Z,62.48
2019-02-27T22:09:16.895Z,62.72
2019-02-27T22:11:45.050Z,67.15
2019-02-27T22:14:12.847Z,72.01
2019-02-27T22:16:41.095Z,63.55
2019-02-27T22:19:08.916Z,61.62
2019-02-27T22:21:38.073Z,61.57
2019-02-27T22:24:06.048Z,62.09
2019-02-27T22:26:34.128Z,62.43
2019-02-27T22:29:03.733Z,62.77
2019-02-27T22:31:31.516Z,63.08
2019-02-27T22:33:59.274Z,63.43
2019-02-27T22:36:27.067Z,63.37
2019-02-27T22:38:59.826Z,63.63
2019-02-27T22:41:25.486Z,63.92
2019-02-27T22:43:55.765Z,63.83
2019-02-27T22:46:23.569Z,64.15
2019-02-27T22:48:51.599Z,64.10
2019-02-27T22:51:20.214Z,64.23
2019-02-27T22:53:48.058Z,64.27
2019-02-27T22:56:17.045Z,64.19
2019-02-27T22:58:45.055Z,64.40
2019-02-27T23:01:24.879Z,64.64
2019-02-27T23:04:12.795Z,64.62
2019-02-27T23:06:43.769Z,64.74
2019-02-27T23:09:13.313Z,64.50
2019-02-27T23:11:42.140Z,64.84
2019-02-27T23:14:10.073Z,64.92
2019-02-27T23:16:39.396Z,64.92
2019-02-27T23:19:07.283Z,65.00
2019-02-27T23:21:35.281Z,64.98
2019-02-27T23:24:03.143Z,64.99
2019-02-27T23:26:30.948Z,65.02
2019-02-27T23:28:58.706Z,65.08
2019-02-27T23:31:26.374Z,65.31
2019-02-27T23:33:54.170Z,65.25
2019-02-27T23:36:22.851Z,65.53
2019-02-27T23:38:50.887Z,65.56
2019-02-27T23:41:22.927Z,65.54
2019-02-27T23:43:48.218Z,65.63
2019-02-27T23:46:18.584Z,65.68
2019-02-27T23:48:46.272Z,65.72
2019-02-27T23:51:16.685Z,65.55
2019-02-27T23:53:44.035Z,65.53
2019-02-27T23:56:11.758Z,65.41
2019-02-27T23:58:39.774Z,65.49
